Rhinelander, Wisconsin
Current Conditions -  °F | °C
As of 10:53 PM on Tuesday 21 Oct 2014 (Local Time) from KRHI Reporting Station
Clear Clear  
Wind Chill: 35°   Ceiling: Unl
Heat Index: 35°   Visibility: 10mi
Dew Point: 29°   Wind: 3mph
Humidity: 78%   Direction: 150°SSE
Pressure: 30.27"   Gusts: NA
Location:  45.64°N, 89.41°W
Report Text: KRHI 220353Z AUTO 15003KT 10SM CLR 02/M02 A3027 RMK AO2 SLP268 T00171017
Loading
Personal Weather Stations






























Interactive Weather Map New forecast layout! Learn more

10-Day Weather Forecast

Advertisements
Track Severe Weather on mobile